createdAt,value
2022-12-25T00:00:26.883Z,13.50
2022-12-25T00:05:28.748Z,16.97
2022-12-25T00:10:37.480Z,13.27
2022-12-25T00:15:42.928Z,14.67
2022-12-25T00:20:44.819Z,13.50
2022-12-25T00:31:12.225Z,12.20
2022-12-25T00:36:21.186Z,15.03
2022-12-25T00:46:45.938Z,13.20
2022-12-25T00:51:51.997Z,9.63
2022-12-25T00:56:53.617Z,16.50
2022-12-25T01:01:55.315Z,11.60
2022-12-25T01:06:57.034Z,11.63
2022-12-25T01:11:58.662Z,13.17
2022-12-25T01:17:00.514Z,13.57
2022-12-25T01:22:02.267Z,10.43
2022-12-25T01:27:06.092Z,17.13
2022-12-25T01:32:07.896Z,13.23
2022-12-25T01:37:20.577Z,16.40
2022-12-25T01:42:24.590Z,19.07
2022-12-25T01:47:26.340Z,14.73
2022-12-25T01:52:33.240Z,21.47
2022-12-25T01:57:36.421Z,9.97
2022-12-25T02:02:38.962Z,18.80
2022-12-25T02:07:48.594Z,18.57
2022-12-25T02:12:53.664Z,15.17
2022-12-25T02:18:22.896Z,23.53
2022-12-25T02:23:36.378Z,24.00
2022-12-25T02:29:17.356Z,16.60
2022-12-25T02:34:32.283Z,11.17
2022-12-25T02:40:01.248Z,14.90
2022-12-25T02:45:25.771Z,18.43
2022-12-25T02:51:11.061Z,13.47
2022-12-25T02:56:29.697Z,16.27
2022-12-25T03:01:54.722Z,9.30
2022-12-25T03:07:29.032Z,9.77
2022-12-25T03:12:39.637Z,15.67
2022-12-25T03:17:43.901Z,12.93
2022-12-25T03:23:04.510Z,13.63
2022-12-25T03:28:14.872Z,13.93
2022-12-25T03:33:45.316Z,16.40
2022-12-25T03:39:29.855Z,13.27
2022-12-25T03:44:39.685Z,9.17
2022-12-25T03:50:10.261Z,11.83
2022-12-25T03:55:38.400Z,19.03
2022-12-25T04:00:58.724Z,15.33
2022-12-25T04:06:27.989Z,17.50
2022-12-25T04:11:48.299Z,19.60
2022-12-25T04:17:08.601Z,11.33
2022-12-25T04:22:32.974Z,16.43
2022-12-25T04:27:53.120Z,16.37
2022-12-25T04:33:17.507Z,14.73
2022-12-25T04:38:20.974Z,14.67
2022-12-25T04:43:25.112Z,11.20
2022-12-25T04:48:29.763Z,12.13
2022-12-25T04:53:33.802Z,14.00
2022-12-25T04:58:37.390Z,24.67
2022-12-25T05:03:39.683Z,19.07
2022-12-25T05:08:53.070Z,11.57
2022-12-25T05:13:57.920Z,16.67
2022-12-25T05:19:02.162Z,10.20
2022-12-25T05:24:04.099Z,14.63
2022-12-25T05:29:10.123Z,21.07
2022-12-25T05:34:14.644Z,12.87
2022-12-25T05:39:16.373Z,12.93
2022-12-25T05:44:25.632Z,10.77
2022-12-25T05:49:29.934Z,9.03
2022-12-25T05:54:31.665Z,10.47
2022-12-25T05:59:36.255Z,12.30
2022-12-25T06:04:41.275Z,13.87
2022-12-25T06:09:46.192Z,11.47
2022-12-25T06:14:51.639Z,15.73
2022-12-25T06:20:01.536Z,24.30
2022-12-25T06:25:03.400Z,14.53
2022-12-25T06:30:06.007Z,10.17
2022-12-25T06:35:08.272Z,9.53
2022-12-25T06:40:10.352Z,12.33
2022-12-25T06:45:16.645Z,9.87
2022-12-25T06:50:18.545Z,11.27
2022-12-25T06:55:24.485Z,13.67
2022-12-25T07:00:26.293Z,17.17
2022-12-25T07:05:28.063Z,12.83
2022-12-25T07:10:31.575Z,10.13
2022-12-25T07:15:33.295Z,13.20
2022-12-25T07:20:37.624Z,13.67
2022-12-25T07:25:43.676Z,17.27
2022-12-25T07:30:45.631Z,13.37
2022-12-25T07:35:47.377Z,13.30
2022-12-25T07:40:55.251Z,12.30
2022-12-25T07:46:00.797Z,10.57
2022-12-25T07:51:08.256Z,11.93
2022-12-25T07:56:18.393Z,9.80
2022-12-25T08:11:53.510Z,11.77
2022-12-25T09:00:13.611Z,8.60
2022-12-25T10:48:35.335Z,6.03
2022-12-25T10:53:43.167Z,7.10
2022-12-25T10:58:45.142Z,10.13
2022-12-25T11:03:57.021Z,7.07
2022-12-25T11:09:00.283Z,8.57
2022-12-25T11:14:02.600Z,6.27
2022-12-25T11:19:28.324Z,11.87
2022-12-25T11:24:32.211Z,10.47
2022-12-25T11:29:45.408Z,9.07
2022-12-25T11:34:48.602Z,8.57
2022-12-25T11:39:50.296Z,18.17
2022-12-25T11:45:01.915Z,13.00
2022-12-25T11:50:35.217Z,10.17
2022-12-25T11:56:40.014Z,10.97
2022-12-25T12:02:46.044Z,12.90
2022-12-25T12:08:41.523Z,11.03
2022-12-25T12:14:30.158Z,11.27
2022-12-25T12:20:50.653Z,8.57
2022-12-25T12:25:55.141Z,8.93
2022-12-25T12:44:11.268Z,10.73
2022-12-25T12:49:28.157Z,11.73
2022-12-25T12:54:36.211Z,14.03
2022-12-25T12:59:43.521Z,14.37
2022-12-25T13:05:35.885Z,12.00
2022-12-25T13:10:46.571Z,12.73
2022-12-25T13:15:50.792Z,11.80
2022-12-25T13:21:55.372Z,12.57
2022-12-25T13:26:57.575Z,10.97
2022-12-25T13:32:53.977Z,11.83
2022-12-25T13:37:54.703Z,12.97
2022-12-25T13:43:30.147Z,20.20
2022-12-25T13:48:32.391Z,11.07
2022-12-25T13:53:42.464Z,11.30
2022-12-25T13:58:46.625Z,12.80
2022-12-25T14:09:38.714Z,11.73
2022-12-25T14:15:00.773Z,10.83
2022-12-25T14:31:42.110Z,11.27
2022-12-25T14:36:43.866Z,13.10
2022-12-25T14:41:54.244Z,14.33
2022-12-25T14:47:06.483Z,27.03
2022-12-25T14:52:24.908Z,21.97
2022-12-25T14:57:43.755Z,22.00
2022-12-25T15:02:46.531Z,25.27
2022-12-25T15:08:02.274Z,29.00
2022-12-25T15:13:07.957Z,22.57
2022-12-25T15:18:18.198Z,22.47
2022-12-25T15:23:25.400Z,22.57
2022-12-25T15:29:09.793Z,22.87
2022-12-25T15:34:23.644Z,22.30
2022-12-25T15:39:25.494Z,23.03
2022-12-25T15:44:27.641Z,19.33
2022-12-25T15:49:32.104Z,16.43
2022-12-25T15:54:34.229Z,22.17
2022-12-25T15:59:38.686Z,21.77
2022-12-25T16:04:42.385Z,22.20
2022-12-25T16:09:49.612Z,23.63
2022-12-25T16:14:59.636Z,25.80
2022-12-25T16:20:01.890Z,22.43
2022-12-25T16:25:17.342Z,23.93
2022-12-25T16:30:21.087Z,27.13
2022-12-25T16:35:26.371Z,24.63
2022-12-25T16:40:31.743Z,21.67
2022-12-25T16:45:46.550Z,23.80
2022-12-25T16:50:50.336Z,26.57
2022-12-25T16:55:57.637Z,24.80
2022-12-25T17:07:17.088Z,23.07
2022-12-25T17:12:42.488Z,25.17
2022-12-25T17:18:02.033Z,27.37
2022-12-25T17:23:09.399Z,27.27
2022-12-25T17:28:11.260Z,39.60
2022-12-25T17:33:13.108Z,38.03
2022-12-25T17:38:17.761Z,41.67
2022-12-25T17:43:21.158Z,34.20
2022-12-25T17:48:31.930Z,39.43
2022-12-25T17:53:40.488Z,38.30
2022-12-25T17:58:44.917Z,34.37
2022-12-25T18:03:47.221Z,32.73
2022-12-25T18:08:49.750Z,38.53
2022-12-25T18:14:00.232Z,35.10
2022-12-25T18:19:04.709Z,40.83
2022-12-25T18:24:16.654Z,45.13
2022-12-25T18:29:18.638Z,41.73
2022-12-25T18:34:45.607Z,50.57
2022-12-25T18:40:04.069Z,64.07
2022-12-25T18:45:26.039Z,75.87
2022-12-25T18:50:27.952Z,62.67
2022-12-25T18:55:30.059Z,57.83
2022-12-25T19:00:32.241Z,51.90
2022-12-25T19:05:34.077Z,54.00
2022-12-25T19:10:40.578Z,40.13
2022-12-25T19:15:43.458Z,49.07
2022-12-25T19:20:45.279Z,47.87
2022-12-25T19:25:49.998Z,55.90
2022-12-25T19:30:54.202Z,36.37
2022-12-25T19:36:09.817Z,34.33
2022-12-25T19:46:46.428Z,22.83
2022-12-25T19:51:51.138Z,19.60
2022-12-25T19:57:34.593Z,18.57
2022-12-25T20:02:38.991Z,16.20
2022-12-25T20:07:40.928Z,17.43
2022-12-25T20:12:42.953Z,16.13
2022-12-25T20:17:49.074Z,16.43
2022-12-25T20:23:05.046Z,16.97
2022-12-25T20:28:07.180Z,21.33
2022-12-25T20:34:01.561Z,19.70
2022-12-25T20:39:06.401Z,19.97
2022-12-25T20:44:10.609Z,17.23
2022-12-25T20:49:15.270Z,18.10
2022-12-25T20:54:17.101Z,19.80
2022-12-25T20:59:18.841Z,19.27
2022-12-25T21:04:20.854Z,21.00
2022-12-25T21:09:22.612Z,19.63
2022-12-25T21:14:24.591Z,20.67
2022-12-25T21:19:28.788Z,25.17
2022-12-25T21:24:30.846Z,31.37
2022-12-25T21:29:32.592Z,18.33
2022-12-25T21:34:39.262Z,20.00
2022-12-25T21:39:41.326Z,16.07
2022-12-25T21:44:43.029Z,20.50
2022-12-25T21:55:54.628Z,23.20
2022-12-25T22:01:05.542Z,21.70
2022-12-25T22:06:26.130Z,20.43
2022-12-25T22:12:15.702Z,18.83
2022-12-25T22:23:01.446Z,19.97
2022-12-25T22:28:03.524Z,23.70
2022-12-25T22:33:08.135Z,24.13
2022-12-25T22:38:09.963Z,25.57
2022-12-25T22:43:11.634Z,28.90
2022-12-25T22:48:13.508Z,29.73
2022-12-25T22:53:15.308Z,28.83
2022-12-25T22:58:19.175Z,28.07
2022-12-25T23:03:21.462Z,29.73
2022-12-25T23:08:32.627Z,28.60
2022-12-25T23:13:53.269Z,33.67
2022-12-25T23:20:17.406Z,29.03
2022-12-25T23:25:42.015Z,26.53
2022-12-25T23:30:45.823Z,25.30
2022-12-25T23:35:53.056Z,26.13
2022-12-25T23:40:55.963Z,28.53
2022-12-25T23:45:57.712Z,26.63
2022-12-25T23:51:08.451Z,26.03
2022-12-25T23:56:48.055Z,29.73
